Time;durP1;ratioP1;P1;durP2;ratioP2;P2;SDS_P1;SDS_P2;PMS_P1;PMS_P2;Temp;Humidity;BMP_temperature;BMP_pressure;BME280_temperature;BME280_humidity;BME280_pressure;Samples;Min_cycle;Max_cycle;Signal;HPM_P1;HPM_P2
2022/05/07 00:00:58;;;;;;;54.35;35.90;;;12.00;99.90;;;;;;5038452;28;20049;-78
2022/05/07 00:03:24;;;;;;;57.10;36.17;;;12.10;99.90;;;;;;5042171;28;20114;-81
2022/05/07 00:05:50;;;;;;;56.72;35.58;;;12.10;99.90;;;;;;5041228;28;20080;-80
2022/05/07 00:08:15;;;;;;;56.65;36.88;;;12.20;99.90;;;;;;5043444;28;20299;-78
2022/05/07 00:10:44;;;;;;;57.75;35.38;;;12.20;99.90;;;;;;5041600;28;20171;-77
2022/05/07 00:13:10;;;;;;;51.13;34.88;;;12.30;99.90;;;;;;5049810;28;20101;-80
2022/05/07 00:15:35;;;;;;;60.45;35.83;;;12.30;99.90;;;;;;5095196;28;20067;-79
2022/05/07 00:18:01;;;;;;;53.63;35.17;;;12.30;99.90;;;;;;5084418;28;20048;-77
2022/05/07 00:20:28;;;;;;;55.63;35.55;;;12.30;99.90;;;;;;5094222;28;20138;-77
2022/05/07 00:22:54;;;;;;;54.13;35.75;;;12.40;99.90;;;;;;5085358;28;20066;-79
2022/05/07 00:25:20;;;;;;;65.18;37.17;;;12.30;99.90;;;;;;5091680;28;20070;-83
2022/05/07 00:27:46;;;;;;;61.88;37.38;;;12.30;99.90;;;;;;5090376;28;20130;-79
2022/05/07 00:30:12;;;;;;;56.97;36.50;;;12.40;99.90;;;;;;5073941;28;20075;-80
2022/05/07 00:32:38;;;;;;;61.75;37.38;;;12.40;99.90;;;;;;5090674;28;20044;-81
2022/05/07 00:35:04;;;;;;;59.25;37.47;;;12.40;99.90;;;;;;5074730;28;20537;-83
2022/05/07 00:37:30;;;;;;;60.95;36.38;;;12.40;99.90;;;;;;5069775;28;20398;-81
2022/05/07 00:39:56;;;;;;;57.35;35.80;;;12.40;99.90;;;;;;5070616;28;20478;-80
2022/05/07 00:42:21;;;;;;;58.53;36.08;;;12.50;99.90;;;;;;5089889;28;20048;-79
2022/05/07 00:44:47;;;;;;;61.95;37.45;;;12.50;99.90;;;;;;5076184;28;20139;-80
2022/05/07 00:47:27;;;;;;;60.70;37.60;;;12.50;99.90;;;;;;5092321;28;20050;-80
2022/05/07 00:52:43;;;;;;;57.30;36.13;;;12.50;99.90;;;;;;5086923;28;20126;-83
2022/05/07 00:55:11;;;;;;;57.35;35.95;;;12.40;99.90;;;;;;5087566;28;20229;-80
2022/05/07 00:57:37;;;;;;;60.80;37.15;;;12.50;99.90;;;;;;5075276;28;20097;-81
2022/05/07 01:00:04;;;;;;;58.72;36.80;;;12.50;99.90;;;;;;5075713;28;20040;-80
2022/05/07 01:02:30;;;;;;;53.65;36.80;;;12.50;99.90;;;;;;5086294;28;20059;-79
2022/05/07 01:04:56;;;;;;;63.92;36.60;;;12.50;99.90;;;;;;5083643;28;20406;-83
2022/05/07 01:07:22;;;;;;;70.10;38.83;;;12.60;99.90;;;;;;5088267;28;20048;-80
2022/05/07 01:09:49;;;;;;;65.30;37.22;;;12.60;99.90;;;;;;5091756;28;20507;-82
2022/05/07 01:12:15;;;;;;;61.40;38.78;;;12.60;99.90;;;;;;5093311;28;20534;-81
2022/05/07 01:14:41;;;;;;;69.63;40.38;;;12.70;99.90;;;;;;5094373;28;20051;-82
2022/05/07 01:17:07;;;;;;;66.15;39.90;;;12.60;99.90;;;;;;5088880;28;20447;-80
2022/05/07 01:19:33;;;;;;;72.90;40.13;;;12.70;99.90;;;;;;5071054;28;20052;-81
2022/05/07 01:21:59;;;;;;;63.03;38.13;;;12.60;99.90;;;;;;5092490;28;20055;-80
2022/05/07 01:24:24;;;;;;;67.45;38.38;;;12.70;99.90;;;;;;5072705;28;20052;-78
2022/05/07 01:26:50;;;;;;;70.53;39.75;;;12.60;99.90;;;;;;5070321;28;20067;-80
2022/05/07 01:29:16;;;;;;;59.80;37.25;;;12.60;99.90;;;;;;5088410;28;20136;-80
2022/05/07 01:31:41;;;;;;;61.25;37.03;;;12.70;99.90;;;;;;5071305;28;20036;-81
2022/05/07 01:34:07;;;;;;;69.93;40.40;;;12.70;99.90;;;;;;5072015;28;20054;-82
2022/05/07 01:36:33;;;;;;;69.10;39.13;;;12.70;99.90;;;;;;5073026;28;20994;-80
2022/05/07 01:38:58;;;;;;;70.70;39.45;;;12.70;99.90;;;;;;5092938;28;20054;-80
2022/05/07 01:41:24;;;;;;;60.95;38.70;;;12.70;99.90;;;;;;5080896;28;20450;-82
2022/05/07 01:43:50;;;;;;;66.03;39.50;;;12.80;99.90;;;;;;5100669;28;20055;-81
2022/05/07 01:49:00;;;;;;;65.82;38.67;;;12.70;99.90;;;;;;5100415;28;20086;-80
2022/05/07 01:51:26;;;;;;;64.28;37.83;;;12.80;99.90;;;;;;5087395;28;20082;-81
2022/05/07 01:53:51;;;;;;;64.32;37.80;;;12.80;99.90;;;;;;5091097;28;20834;-84
2022/05/07 01:56:17;;;;;;;63.83;38.95;;;12.80;99.90;;;;;;5070456;28;20433;-82
2022/05/07 01:58:44;;;;;;;62.17;37.50;;;12.80;99.90;;;;;;5086582;28;20043;-78
2022/05/07 02:01:10;;;;;;;65.85;38.20;;;12.70;99.90;;;;;;5088916;28;20423;-79
2022/05/07 02:03:37;;;;;;;59.42;36.80;;;12.80;99.90;;;;;;5077881;28;20051;-79
2022/05/07 02:06:03;;;;;;;66.03;39.42;;;12.80;99.90;;;;;;5091660;28;20048;-82
2022/05/07 02:08:28;;;;;;;68.32;38.47;;;12.80;99.90;;;;;;5089739;28;20063;-83
2022/05/07 02:10:54;;;;;;;63.38;38.17;;;12.90;99.90;;;;;;5073278;28;20153;-79
2022/05/07 02:13:20;;;;;;;63.30;38.17;;;13.00;99.90;;;;;;5072974;28;20142;-83
2022/05/07 02:15:45;;;;;;;68.57;37.63;;;12.90;99.90;;;;;;5071178;28;20059;-81
2022/05/07 02:18:11;;;;;;;67.47;38.80;;;12.90;99.90;;;;;;5103662;28;20068;-81
2022/05/07 02:20:37;;;;;;;69.53;38.45;;;12.90;99.90;;;;;;5073795;28;20050;-83
2022/05/07 02:23:02;;;;;;;63.28;37.75;;;12.90;99.90;;;;;;5073613;28;20048;-80
2022/05/07 02:25:28;;;;;;;62.75;37.80;;;12.80;99.90;;;;;;5070518;28;20051;-81
2022/05/07 02:27:53;;;;;;;58.30;37.85;;;12.90;99.90;;;;;;5070695;28;20055;-80
2022/05/07 02:30:19;;;;;;;61.63;37.00;;;12.90;99.90;;;;;;5079078;28;20085;-81
2022/05/07 02:32:49;;;;;;;63.65;37.10;;;12.90;99.90;;;;;;5072179;28;20058;-82
2022/05/07 02:35:15;;;;;;;54.60;36.20;;;12.90;99.90;;;;;;5088478;28;20387;-82
2022/05/07 02:37:40;;;;;;;57.47;37.10;;;13.00;99.90;;;;;;5071847;28;20055;-77
2022/05/07 02:40:07;;;;;;;57.13;35.92;;;12.90;99.90;;;;;;5074243;28;20059;-80
2022/05/07 02:42:39;;;;;;;58.90;36.35;;;12.80;99.90;;;;;;5073062;28;20513;-80
2022/05/07 02:45:07;;;;;;;59.30;36.03;;;12.90;99.90;;;;;;5078019;28;20517;-80
2022/05/07 02:47:35;;;;;;;61.67;36.45;;;12.80;99.90;;;;;;5068896;28;20501;-80
2022/05/07 02:50:01;;;;;;;56.20;36.15;;;12.80;99.90;;;;;;5088114;28;20043;-79
2022/05/07 02:52:27;;;;;;;55.63;35.58;;;12.80;99.90;;;;;;5089511;28;20039;-79
2022/05/07 02:54:53;;;;;;;59.55;35.60;;;12.80;99.90;;;;;;5105090;28;20066;-80
2022/05/07 02:57:19;;;;;;;53.78;35.53;;;12.80;99.90;;;;;;5075876;28;20055;-80
2022/05/07 02:59:45;;;;;;;54.13;34.63;;;12.70;99.90;;;;;;5092643;28;20062;-79
2022/05/07 03:02:10;;;;;;;57.45;36.90;;;12.70;99.90;;;;;;5078848;28;20054;-82
2022/05/07 03:04:36;;;;;;;62.70;35.97;;;12.70;99.90;;;;;;5072183;28;20051;-82
2022/05/07 03:07:02;;;;;;;53.42;34.47;;;12.70;99.90;;;;;;5098924;28;20051;-81
2022/05/07 03:09:28;;;;;;;53.65;33.60;;;12.70;99.90;;;;;;5099434;28;20047;-81
2022/05/07 03:11:54;;;;;;;51.83;34.33;;;12.70;99.90;;;;;;5103386;28;20119;-79
2022/05/07 03:14:19;;;;;;;53.55;34.78;;;12.60;99.90;;;;;;5108246;28;20057;-82
2022/05/07 03:16:47;;;;;;;55.85;35.30;;;12.50;99.90;;;;;;5074333;28;20168;-83
2022/05/07 03:19:13;;;;;;;56.20;34.97;;;12.60;99.90;;;;;;5077987;28;20035;-80
2022/05/07 03:21:43;;;;;;;55.40;36.08;;;12.60;99.90;;;;;;5076741;28;20770;-80
2022/05/07 03:24:22;;;;;;;51.97;35.08;;;12.50;99.90;;;;;;5095123;28;20050;-81
2022/05/07 03:26:47;;;;;;;51.78;34.58;;;12.50;99.90;;;;;;5078513;28;20075;-84
2022/05/07 03:29:13;;;;;;;52.33;34.80;;;12.50;99.90;;;;;;5099200;28;20071;-82
2022/05/07 03:31:39;;;;;;;56.22;35.45;;;12.50;99.90;;;;;;5079938;28;20035;-83
2022/05/07 03:34:08;;;;;;;52.05;34.83;;;12.40;99.90;;;;;;5092820;28;20035;-80
2022/05/07 03:36:34;;;;;;;52.03;34.78;;;12.40;99.90;;;;;;5089227;28;20466;-79
2022/05/07 03:39:00;;;;;;;53.78;34.78;;;12.40;99.90;;;;;;5071811;28;20159;-83
2022/05/07 03:41:26;;;;;;;53.53;34.55;;;12.40;99.90;;;;;;5095965;28;20548;-83
2022/05/07 03:43:52;;;;;;;53.60;35.17;;;12.40;99.90;;;;;;5086316;28;20076;-80
2022/05/07 03:46:18;;;;;;;51.72;34.97;;;12.60;99.90;;;;;;5071815;28;20124;-79
2022/05/07 03:48:43;;;;;;;51.45;33.85;;;12.40;99.90;;;;;;5074662;28;20055;-81
2022/05/07 03:51:09;;;;;;;52.85;35.25;;;12.30;99.90;;;;;;5094100;28;20051;-82
2022/05/07 03:53:38;;;;;;;57.42;35.60;;;12.50;99.90;;;;;;5069931;28;20135;-81
2022/05/07 03:56:08;;;;;;;54.40;35.20;;;12.30;99.90;;;;;;5074537;28;20035;-81
2022/05/07 03:58:36;;;;;;;54.95;35.85;;;12.40;99.90;;;;;;5088000;28;20096;-80
2022/05/07 04:01:02;;;;;;;50.05;34.72;;;12.40;99.90;;;;;;5075613;28;20107;-80
2022/05/07 04:03:29;;;;;;;51.53;35.10;;;12.40;99.90;;;;;;5088957;28;20483;-80
2022/05/07 04:05:55;;;;;;;50.22;35.22;;;12.40;99.90;;;;;;5071674;28;20120;-81
2022/05/07 04:08:21;;;;;;;48.97;34.13;;;12.40;99.90;;;;;;5076291;28;20132;-82
2022/05/07 04:10:47;;;;;;;51.63;34.55;;;12.70;99.90;;;;;;5073699;28;20059;-80
2022/05/07 04:13:15;;;;;;;47.58;33.53;;;12.30;99.90;;;;;;5077102;28;20044;-79
2022/05/07 04:15:45;;;;;;;48.03;33.83;;;12.40;99.90;;;;;;5076978;28;20044;-79
2022/05/07 04:18:11;;;;;;;51.50;34.75;;;12.50;99.90;;;;;;5075062;28;20040;-80
2022/05/07 04:20:38;;;;;;;47.22;33.83;;;12.40;99.90;;;;;;5086423;28;20040;-80
2022/05/07 04:23:10;;;;;;;50.78;34.50;;;12.40;99.90;;;;;;5090799;28;20036;-80
2022/05/07 04:25:38;;;;;;;52.10;33.22;;;12.40;99.90;;;;;;5077731;28;20066;-82
2022/05/07 04:28:04;;;;;;;50.72;33.58;;;12.50;99.90;;;;;;5079639;28;20035;-82
2022/05/07 04:30:29;;;;;;;50.65;34.05;;;12.50;99.90;;;;;;5079024;28;20036;-82
2022/05/07 04:32:56;;;;;;;46.25;32.30;;;12.50;99.90;;;;;;5074339;28;20035;-80
2022/05/07 04:35:22;;;;;;;46.80;32.20;;;12.70;99.90;;;;;;5103153;28;20479;-78
2022/05/07 04:37:47;;;;;;;50.85;32.88;;;12.50;99.90;;;;;;5108780;28;20042;-77
2022/05/07 04:40:13;;;;;;;45.78;32.13;;;12.50;99.90;;;;;;5089704;28;20112;-78
2022/05/07 04:42:40;;;;;;;49.20;31.83;;;12.60;99.90;;;;;;5085644;28;20044;-83
2022/05/07 04:45:06;;;;;;;41.65;30.40;;;12.50;99.90;;;;;;5083902;28;20037;-82
2022/05/07 04:47:32;;;;;;;46.33;32.13;;;12.60;99.90;;;;;;5093812;28;20044;-79
2022/05/07 04:49:58;;;;;;;45.80;31.35;;;12.70;99.90;;;;;;5072630;28;20402;-82
2022/05/07 04:52:24;;;;;;;47.22;32.80;;;12.60;99.90;;;;;;5090589;28;20036;-82
2022/05/07 04:54:50;;;;;;;45.15;32.28;;;12.70;99.90;;;;;;5092236;28;20046;-79
2022/05/07 04:57:15;;;;;;;43.88;29.92;;;12.70;99.90;;;;;;5070089;28;20036;-82
2022/05/07 04:59:41;;;;;;;40.45;29.45;;;12.80;99.90;;;;;;5071597;28;20035;-81
2022/05/07 05:02:07;;;;;;;43.65;31.02;;;12.80;99.90;;;;;;5073010;28;20493;-80
2022/05/07 05:04:32;;;;;;;42.15;30.42;;;12.80;99.90;;;;;;5072988;28;20138;-83
2022/05/07 05:06:58;;;;;;;44.03;30.77;;;12.90;99.90;;;;;;5073862;28;20916;-82
2022/05/07 05:09:24;;;;;;;42.92;31.10;;;12.80;99.90;;;;;;5078358;28;20479;-83
2022/05/07 05:11:50;;;;;;;45.67;33.28;;;12.90;99.90;;;;;;5072550;28;20039;-81
2022/05/07 05:17:19;;;;;;;51.03;33.78;;;12.90;99.90;;;;;;5059895;28;20048;-83
2022/05/07 05:19:45;;;;;;;55.00;34.58;;;12.80;99.90;;;;;;5045800;28;20101;-82
2022/05/07 05:22:10;;;;;;;49.45;34.05;;;12.80;99.90;;;;;;5041102;28;20073;-82
2022/05/07 05:24:36;;;;;;;50.38;35.08;;;12.80;99.90;;;;;;5061508;28;20039;-80
2022/05/07 05:27:02;;;;;;;57.28;36.28;;;12.80;99.90;;;;;;5063880;28;20061;-85
2022/05/07 05:29:28;;;;;;;54.72;36.38;;;12.70;99.90;;;;;;5039096;28;20096;-84
2022/05/07 05:31:53;;;;;;;59.22;36.25;;;12.80;99.90;;;;;;5062297;28;20434;-81
2022/05/07 05:34:19;;;;;;;57.53;37.45;;;12.80;99.90;;;;;;5063449;28;20120;-81
2022/05/07 05:36:45;;;;;;;52.88;36.45;;;12.80;99.90;;;;;;5044143;28;20181;-80
2022/05/07 05:39:10;;;;;;;50.40;35.95;;;12.80;99.90;;;;;;5063470;28;20064;-81
2022/05/07 05:41:39;;;;;;;52.70;35.60;;;12.80;99.90;;;;;;5064790;28;20123;-82
2022/05/07 05:44:05;;;;;;;49.50;34.15;;;12.80;99.90;;;;;;5043212;28;20097;-81
2022/05/07 05:46:30;;;;;;;53.15;35.05;;;12.80;99.90;;;;;;5046204;28;20036;-83
2022/05/07 05:48:57;;;;;;;49.60;35.28;;;12.90;99.90;;;;;;5063752;28;20105;-81
2022/05/07 05:51:23;;;;;;;49.40;35.22;;;12.90;99.90;;;;;;5090006;28;20044;-80
2022/05/07 05:53:48;;;;;;;51.83;34.58;;;13.00;99.90;;;;;;5091708;28;20046;-81
2022/05/07 05:56:14;;;;;;;48.58;34.95;;;13.00;99.90;;;;;;5075396;28;20063;-81
2022/05/07 05:58:40;;;;;;;54.70;34.35;;;13.30;99.90;;;;;;5071767;28;20043;-80
2022/05/07 06:01:08;;;;;;;48.72;34.47;;;13.20;99.90;;;;;;5081109;28;20050;-79
2022/05/07 06:03:34;;;;;;;47.22;32.42;;;13.20;99.90;;;;;;5104230;28;20394;-80
2022/05/07 06:06:00;;;;;;;44.08;31.98;;;13.30;99.90;;;;;;5103498;28;20043;-78
2022/05/07 06:08:26;;;;;;;50.55;32.88;;;13.40;99.90;;;;;;5099252;28;20059;-78
2022/05/07 06:10:54;;;;;;;46.95;31.92;;;13.40;99.90;;;;;;5076579;28;20071;-82
2022/05/07 06:13:19;;;;;;;37.90;27.13;;;13.50;99.90;;;;;;5088350;28;20074;-77
2022/05/07 06:15:51;;;;;;;27.52;15.88;;;13.80;99.90;;;;;;5071313;28;20064;-77
2022/05/07 06:18:25;;;;;;;39.63;29.02;;;14.20;99.90;;;;;;5071375;28;20144;-83
2022/05/07 06:20:51;;;;;;;41.13;28.40;;;14.50;99.90;;;;;;5078689;28;20090;-81
2022/05/07 06:23:17;;;;;;;38.72;29.83;;;14.40;99.90;;;;;;5069393;28;20047;-82
2022/05/07 06:28:28;;;;;;;40.35;29.20;;;14.20;99.90;;;;;;5090156;28;20135;-81
2022/05/07 06:30:54;;;;;;;40.13;29.15;;;14.30;99.90;;;;;;5088867;28;20482;-79
2022/05/07 06:33:20;;;;;;;41.00;29.27;;;14.20;99.90;;;;;;5089979;28;20036;-84
2022/05/07 06:35:47;;;;;;;39.67;27.80;;;14.30;99.90;;;;;;5099611;28;20043;-82
2022/05/07 06:38:13;;;;;;;35.60;26.63;;;14.40;99.90;;;;;;5082236;28;20474;-81
2022/05/07 06:40:39;;;;;;;36.60;27.13;;;14.40;99.90;;;;;;5071117;28;20047;-83
2022/05/07 06:43:05;;;;;;;36.67;27.20;;;14.50;99.90;;;;;;5083753;28;20032;-83
2022/05/07 06:45:32;;;;;;;36.72;26.42;;;14.30;99.90;;;;;;5077254;28;20229;-78
2022/05/07 06:47:58;;;;;;;33.63;25.85;;;14.50;99.90;;;;;;5081532;28;20044;-80
2022/05/07 06:50:24;;;;;;;36.00;25.70;;;14.70;99.90;;;;;;5078294;28;20035;-79
2022/05/07 06:52:50;;;;;;;32.10;24.38;;;14.80;99.90;;;;;;5097197;28;20032;-81
2022/05/07 06:55:17;;;;;;;37.40;25.08;;;14.90;99.90;;;;;;5098843;28;20047;-82
2022/05/07 06:57:44;;;;;;;37.28;24.25;;;15.10;99.90;;;;;;5102334;28;20044;-83
2022/05/07 07:00:12;;;;;;;33.05;23.80;;;15.20;99.90;;;;;;5104033;28;20465;-81
2022/05/07 07:02:38;;;;;;;29.40;22.98;;;15.20;99.90;;;;;;5078638;28;20067;-83
2022/05/07 07:05:05;;;;;;;32.15;23.13;;;15.20;99.90;;;;;;5094361;28;20035;-84
2022/05/07 07:07:31;;;;;;;31.13;21.85;;;15.20;99.90;;;;;;5095826;28;20036;-83
2022/05/07 07:09:58;;;;;;;30.95;22.05;;;15.40;99.90;;;;;;5074174;28;20226;-80
2022/05/07 07:12:24;;;;;;;27.23;21.75;;;15.40;99.90;;;;;;5096294;28;20067;-80
2022/05/07 07:14:50;;;;;;;27.65;21.13;;;15.60;99.90;;;;;;5075428;28;20058;-80
2022/05/07 07:17:17;;;;;;;31.45;22.38;;;15.60;99.90;;;;;;5090191;28;20047;-82
2022/05/07 07:19:46;;;;;;;26.98;21.35;;;15.60;99.90;;;;;;5099185;28;20043;-80
2022/05/07 07:22:13;;;;;;;28.50;22.13;;;15.70;99.90;;;;;;5076503;28;20059;-84
2022/05/07 07:24:39;;;;;;;24.80;19.95;;;15.90;99.90;;;;;;5075942;28;20035;-84
2022/05/07 07:30:30;;;;;;;30.67;21.67;;;16.20;99.90;;;;;;5114056;28;20035;-81
2022/05/07 07:32:56;;;;;;;30.73;20.55;;;16.40;99.90;;;;;;5086002;28;20047;-76
2022/05/07 07:35:23;;;;;;;31.83;21.27;;;16.50;99.90;;;;;;5088367;28;20344;-82
2022/05/07 07:37:49;;;;;;;27.05;20.50;;;16.40;99.90;;;;;;5091905;28;20035;-80
2022/05/07 07:40:31;;;;;;;28.20;20.27;;;16.40;99.90;;;;;;5077624;28;20040;-81
2022/05/07 07:42:56;;;;;;;27.92;20.73;;;16.50;99.90;;;;;;5078262;28;20042;-83
2022/05/07 07:48:07;;;;;;;27.15;21.23;;;16.50;99.90;;;;;;5095547;28;20117;-83
2022/05/07 07:50:35;;;;;;;26.40;20.95;;;16.50;99.90;;;;;;5075701;28;20149;-80
2022/05/07 07:53:06;;;;;;;27.50;21.52;;;16.70;99.90;;;;;;5074267;28;20054;-83
2022/05/07 07:55:41;;;;;;;31.50;22.05;;;17.00;99.90;;;;;;5082191;28;20039;-80
2022/05/07 07:58:08;;;;;;;30.20;21.55;;;16.90;99.90;;;;;;5077316;28;20066;-84
2022/05/07 08:00:37;;;;;;;28.33;22.10;;;16.80;99.90;;;;;;5093057;28;20120;-81
2022/05/07 08:03:09;;;;;;;27.38;21.75;;;16.70;99.90;;;;;;5091683;28;20428;-83
2022/05/07 08:05:36;;;;;;;39.50;23.70;;;16.60;99.90;;;;;;5086862;28;20048;-81
2022/05/07 08:11:41;;;;;;;30.05;23.27;;;16.40;99.90;;;;;;5092722;28;20400;-82
2022/05/07 08:14:08;;;;;;;30.48;22.98;;;16.50;99.90;;;;;;5069120;28;20485;-85
2022/05/07 08:16:35;;;;;;;33.30;23.45;;;16.70;99.90;;;;;;5070665;28;20043;-83
2022/05/07 08:19:03;;;;;;;31.85;24.58;;;16.70;99.90;;;;;;5088814;28;20057;-84
2022/05/07 08:21:29;;;;;;;34.60;25.38;;;16.70;99.90;;;;;;5099559;28;20069;-84
2022/05/07 08:23:54;;;;;;;36.10;25.83;;;16.60;99.90;;;;;;5078118;28;20390;-84
2022/05/07 08:26:20;;;;;;;37.97;25.67;;;16.60;99.90;;;;;;5078636;28;20051;-82
2022/05/07 08:28:46;;;;;;;34.15;24.08;;;16.80;99.90;;;;;;5081153;28;20055;-82
2022/05/07 08:31:13;;;;;;;35.45;25.55;;;16.80;99.90;;;;;;5079061;28;20039;-81
2022/05/07 08:33:43;;;;;;;45.90;30.55;;;16.70;99.90;;;;;;5094434;28;20394;-83
2022/05/07 08:36:10;;;;;;;51.20;33.15;;;16.60;99.90;;;;;;5087170;28;20385;-83
2022/05/07 08:38:36;;;;;;;48.10;33.28;;;16.60;99.90;;;;;;5087250;28;20043;-83
2022/05/07 08:41:02;;;;;;;49.72;33.30;;;16.60;99.90;;;;;;5086208;28;20042;-84
2022/05/07 08:43:36;;;;;;;45.90;32.08;;;16.50;99.90;;;;;;5084602;28;20044;-85
2022/05/07 08:46:09;;;;;;;45.17;31.45;;;16.60;99.90;;;;;;5091155;28;20473;-83
2022/05/07 08:48:35;;;;;;;48.15;31.92;;;16.60;99.90;;;;;;5109870;28;20055;-83
2022/05/07 08:51:02;;;;;;;44.58;32.47;;;16.70;99.90;;;;;;5098357;28;20043;-81
2022/05/07 08:53:30;;;;;;;49.25;33.92;;;16.70;99.90;;;;;;5102280;28;20039;-80
2022/05/07 08:56:21;;;;;;;53.25;33.65;;;16.70;99.90;;;;;;5116516;28;20043;-79
2022/05/07 08:58:51;;;;;;;54.35;33.53;;;16.70;99.90;;;;;;5096352;28;20059;-75
2022/05/07 09:01:17;;;;;;;52.75;34.20;;;16.60;99.90;;;;;;5079358;28;20126;-83
2022/05/07 09:03:45;;;;;;;50.42;32.78;;;16.50;99.90;;;;;;5081378;28;20183;-84
2022/05/07 09:06:23;;;;;;;49.72;32.60;;;16.60;99.90;;;;;;5097708;28;20083;-82
2022/05/07 09:08:50;;;;;;;49.97;33.22;;;16.50;99.90;;;;;;5113247;28;20035;-80
2022/05/07 09:11:17;;;;;;;56.58;35.75;;;16.50;99.90;;;;;;5116555;28;20134;-81
2022/05/07 09:13:43;;;;;;;49.20;33.40;;;16.70;99.90;;;;;;5125974;28;20023;-80
2022/05/07 09:16:09;;;;;;;48.25;32.97;;;16.70;99.90;;;;;;5120044;28;20042;-81
2022/05/07 09:18:35;;;;;;;46.38;30.08;;;16.50;99.90;;;;;;5097115;28;20067;-83
2022/05/07 09:21:24;;;;;;;40.15;27.73;;;16.40;99.90;;;;;;5096931;28;20035;-78
2022/05/07 09:23:55;;;;;;;44.25;28.00;;;16.30;99.90;;;;;;5095338;28;20181;-82
2022/05/07 09:26:31;;;;;;;41.80;27.88;;;16.30;99.90;;;;;;5101140;28;20119;-81
2022/05/07 09:29:00;;;;;;;43.88;29.38;;;16.40;99.90;;;;;;5085888;28;20036;-80
2022/05/07 09:31:27;;;;;;;45.80;29.27;;;16.40;99.90;;;;;;5076045;28;20111;-83
2022/05/07 09:33:55;;;;;;;43.85;28.50;;;16.60;99.90;;;;;;5106068;28;20428;-85
2022/05/07 09:36:23;;;;;;;44.08;29.58;;;16.60;99.90;;;;;;5109572;28;20043;-81
2022/05/07 09:38:59;;;;;;;45.35;28.33;;;16.60;99.90;;;;;;5075702;28;20059;-84
2022/05/07 09:41:24;;;;;;;46.83;28.45;;;16.80;99.90;;;;;;5076082;28;20512;-81
2022/05/07 09:43:51;;;;;;;44.13;29.60;;;17.00;99.90;;;;;;5078667;28;20040;-81
2022/05/07 09:46:19;;;;;;;46.60;28.35;;;17.20;99.90;;;;;;5057967;28;20043;-84
2022/05/07 09:48:46;;;;;;;46.45;30.05;;;17.30;99.90;;;;;;5089810;28;20126;-85
2022/05/07 09:51:12;;;;;;;49.90;31.67;;;17.30;99.90;;;;;;5109652;28;20115;-86
2022/05/07 09:59:10;;;;;;;48.38;33.08;;;17.50;99.90;;;;;;5089388;28;20040;-82
2022/05/07 10:02:08;;;;;;;47.92;32.50;;;17.70;99.90;;;;;;5102954;28;20402;-82
2022/05/07 10:04:57;;;;;;;47.42;31.98;;;17.60;99.90;;;;;;5091855;28;20111;-85
2022/05/07 10:07:50;;;;;;;50.03;31.20;;;17.90;99.90;;;;;;5097487;28;20571;-82
2022/05/07 10:10:24;;;;;;;43.17;29.08;;;17.80;99.90;;;;;;5094507;28;20124;-83
2022/05/07 10:12:51;;;;;;;42.17;28.67;;;18.00;99.90;;;;;;5075321;28;20040;-82
2022/05/07 10:15:23;;;;;;;43.22;29.33;;;18.00;99.90;;;;;;5092068;28;20496;-83
2022/05/07 10:18:14;;;;;;;42.15;28.85;;;18.10;99.90;;;;;;5091893;28;20103;-78
2022/05/07 10:20:44;;;;;;;45.17;28.98;;;18.10;99.90;;;;;;5113121;28;20060;-79
2022/05/07 10:23:12;;;;;;;44.75;29.35;;;17.80;99.90;;;;;;5126988;28;20035;-83
2022/05/07 10:25:40;;;;;;;43.40;29.83;;;18.10;99.90;;;;;;5108644;28;20063;-76
2022/05/07 10:28:44;;;;;;;42.47;29.33;;;18.20;99.90;;;;;;5100331;28;20127;-85
2022/05/07 10:31:21;;;;;;;46.40;30.42;;;18.20;99.90;;;;;;5101252;28;20035;-83
2022/05/07 10:33:47;;;;;;;47.20;29.75;;;18.10;99.90;;;;;;5095415;28;20062;-86
2022/05/07 10:36:14;;;;;;;49.80;30.42;;;18.00;99.90;;;;;;5097212;28;20040;-81
2022/05/07 10:38:42;;;;;;;41.38;30.20;;;17.70;99.90;;;;;;5084640;28;20082;-81
2022/05/07 10:41:24;;;;;;;46.67;31.85;;;17.70;99.90;;;;;;5098197;28;20112;-83
2022/05/07 10:44:09;;;;;;;47.42;31.67;;;17.40;99.90;;;;;;5089792;28;20067;-85
2022/05/07 10:46:42;;;;;;;52.83;34.17;;;17.50;99.90;;;;;;5094695;28;20044;-83
2022/05/07 10:49:08;;;;;;;52.15;34.85;;;17.40;99.90;;;;;;5093034;28;20139;-83
2022/05/07 10:51:35;;;;;;;57.58;35.25;;;17.10;99.90;;;;;;5113353;28;20154;-82
2022/05/07 10:54:15;;;;;;;62.25;35.70;;;17.30;99.90;;;;;;5088601;28;20047;-83
2022/05/07 10:56:46;;;;;;;57.08;35.58;;;17.10;99.90;;;;;;5088712;28;20039;-83
2022/05/07 10:59:12;;;;;;;57.60;35.22;;;17.00;99.90;;;;;;5105726;28;20040;-85
2022/05/07 11:01:38;;;;;;;49.40;33.75;;;16.90;99.90;;;;;;5104235;28;20364;-81
2022/05/07 11:04:05;;;;;;;47.67;30.48;;;16.90;99.90;;;;;;5076284;28;20044;-83
2022/05/07 11:06:32;;;;;;;45.38;28.95;;;16.80;99.90;;;;;;5078252;28;20080;-81
2022/05/07 11:08:58;;;;;;;43.80;28.02;;;16.80;99.90;;;;;;5077385;28;20035;-80
2022/05/07 11:11:24;;;;;;;41.22;26.50;;;16.80;99.90;;;;;;5077689;28;20032;-80
2022/05/07 11:13:52;;;;;;;40.63;27.10;;;16.70;99.90;;;;;;5077655;28;20040;-83
2022/05/07 11:16:19;;;;;;;44.47;27.25;;;16.60;99.90;;;;;;5092733;28;20048;-79
2022/05/07 11:18:53;;;;;;;38.30;25.90;;;16.70;99.90;;;;;;5093580;28;20050;-81
2022/05/07 11:21:20;;;;;;;34.67;22.13;;;16.60;99.90;;;;;;5098031;28;20068;-80
2022/05/07 11:23:59;;;;;;;32.78;20.42;;;16.50;99.90;;;;;;5101632;28;20111;-81
2022/05/07 11:26:29;;;;;;;28.33;18.35;;;16.50;99.90;;;;;;5073588;28;20054;-78
2022/05/07 11:28:55;;;;;;;29.08;18.80;;;16.40;99.90;;;;;;5096433;28;20059;-80
2022/05/07 11:31:29;;;;;;;26.83;17.63;;;16.50;99.90;;;;;;5091707;28;20109;-79
2022/05/07 11:34:03;;;;;;;27.52;16.42;;;16.70;99.90;;;;;;5088309;28;20040;-79
2022/05/07 11:36:29;;;;;;;25.17;15.27;;;16.80;99.90;;;;;;5088774;28;20194;-82
2022/05/07 11:39:02;;;;;;;24.23;16.77;;;17.00;99.90;;;;;;5093295;28;20127;-79
2022/05/07 11:41:28;;;;;;;26.83;15.52;;;17.30;99.90;;;;;;5072969;28;20444;-80
2022/05/07 11:46:55;;;;;;;21.08;14.25;;;17.90;99.90;;;;;;5099636;28;20036;-80
2022/05/07 11:49:33;;;;;;;14.05;9.50;;;17.80;99.90;;;;;;5108875;28;20380;-80
2022/05/07 11:52:10;;;;;;;12.43;8.13;;;17.60;99.90;;;;;;5099573;28;20035;-80
2022/05/07 11:54:47;;;;;;;14.77;8.70;;;17.30;99.90;;;;;;5106484;27;20040;-82
2022/05/07 11:57:13;;;;;;;11.88;7.78;;;17.40;99.90;;;;;;5093730;28;20067;-85
2022/05/07 11:59:43;;;;;;;13.48;8.75;;;17.40;99.90;;;;;;5096652;28;20221;-81
2022/05/07 12:02:09;;;;;;;13.80;8.85;;;17.50;99.90;;;;;;5088938;28;20048;-80
2022/05/07 12:04:34;;;;;;;12.18;9.02;;;17.50;99.90;;;;;;5077589;28;20046;-83
2022/05/07 12:07:00;;;;;;;17.52;9.43;;;17.40;99.90;;;;;;5091775;28;20047;-80
2022/05/07 12:09:29;;;;;;;19.63;10.02;;;17.30;99.90;;;;;;5090917;28;20108;-80
2022/05/07 12:11:55;;;;;;;15.82;9.48;;;17.10;99.90;;;;;;5098368;28;20433;-83
2022/05/07 12:14:21;;;;;;;13.73;10.00;;;17.00;99.90;;;;;;5072695;28;20093;-83
2022/05/07 12:19:34;;;;;;;15.90;9.93;;;16.90;99.90;;;;;;5099563;28;20121;-83
2022/05/07 12:30:14;;;;;;;16.63;9.93;;;16.90;99.90;;;;;;5095804;28;20044;-81
2022/05/07 12:32:43;;;;;;;16.60;9.50;;;16.80;99.90;;;;;;5078907;28;20046;-84
2022/05/07 12:35:09;;;;;;;14.35;9.65;;;16.80;99.90;;;;;;5084126;28;20404;-81
2022/05/07 12:37:37;;;;;;;13.45;10.15;;;17.00;99.90;;;;;;5071297;28;20036;-84
2022/05/07 12:40:04;;;;;;;17.85;11.07;;;17.10;99.90;;;;;;5078464;28;20035;-85
2022/05/07 12:42:30;;;;;;;18.98;11.85;;;17.40;99.90;;;;;;5090828;28;20043;-83
2022/05/07 12:44:55;;;;;;;16.30;11.75;;;17.70;99.90;;;;;;5079890;28;20458;-86
2022/05/07 12:47:21;;;;;;;17.80;12.13;;;17.80;99.90;;;;;;5089197;28;20040;-85
2022/05/07 12:49:47;;;;;;;21.13;14.00;;;18.20;99.90;;;;;;5109590;27;20048;-83
2022/05/07 12:52:15;;;;;;;22.95;14.95;;;18.10;99.90;;;;;;5096252;28;20039;-85
2022/05/07 12:54:41;;;;;;;24.92;16.13;;;17.90;99.90;;;;;;5074162;28;20035;-86
2022/05/07 12:57:07;;;;;;;22.33;16.75;;;17.30;99.90;;;;;;5086406;28;20440;-86
2022/05/07 12:59:33;;;;;;;27.15;16.77;;;17.20;99.90;;;;;;5072625;28;20107;-83
2022/05/07 13:02:03;;;;;;;27.63;16.73;;;17.40;99.90;;;;;;5081709;28;20116;-84
2022/05/07 13:04:29;;;;;;;22.48;15.65;;;17.30;99.90;;;;;;5079579;28;20478;-84
2022/05/07 13:06:54;;;;;;;20.10;15.05;;;17.20;99.90;;;;;;5096689;28;20077;-81
2022/05/07 13:09:20;;;;;;;20.83;14.75;;;17.30;99.90;;;;;;5074539;28;20066;-83
2022/05/07 13:11:58;;;;;;;17.65;13.27;;;17.60;99.90;;;;;;5093968;28;20040;-83